createdAt,value
2023-04-03T00:01:26.689Z,82.70
2023-04-03T00:03:53.322Z,82.50
2023-04-03T00:06:19.905Z,81.10
2023-04-03T00:08:46.475Z,80.60
2023-04-03T00:11:13.039Z,81.60
2023-04-03T00:13:39.599Z,82.50
2023-04-03T00:16:06.163Z,83.40
2023-04-03T00:18:32.856Z,84.70
2023-04-03T00:20:59.507Z,85.20
2023-04-03T00:23:26.065Z,85.60
2023-04-03T00:25:52.635Z,85.10
2023-04-03T00:28:19.194Z,84.60
2023-04-03T00:30:46.027Z,84.90
2023-04-03T00:33:12.635Z,84.90
2023-04-03T00:35:39.320Z,85.60
2023-04-03T00:38:05.954Z,85.60
2023-04-03T00:40:32.506Z,85.60
2023-04-03T00:42:59.077Z,85.40
2023-04-03T00:45:25.703Z,85.40
2023-04-03T00:47:52.413Z,86.20
2023-04-03T00:50:19.027Z,86.90
2023-04-03T00:52:45.590Z,87.20
2023-04-03T00:55:12.184Z,86.50
2023-04-03T00:57:38.752Z,86.70
2023-04-03T01:00:05.541Z,87.30
2023-04-03T01:02:32.156Z,86.70
2023-04-03T01:05:00.052Z,86.10
2023-04-03T01:07:26.706Z,87.80
2023-04-03T01:09:53.286Z,88.20
2023-04-03T01:12:19.812Z,87.80
2023-04-03T01:14:46.416Z,89.20
2023-04-03T01:17:12.970Z,89.50
2023-04-03T01:19:39.529Z,88.70
2023-04-03T01:22:06.234Z,88.00
2023-04-03T01:24:32.821Z,87.20
2023-04-03T01:27:00.411Z,86.70
2023-04-03T01:29:26.988Z,86.60
2023-04-03T01:31:53.707Z,86.70
2023-04-03T01:34:20.377Z,86.80
2023-04-03T01:36:46.934Z,86.90
2023-04-03T01:39:13.607Z,87.30
2023-04-03T01:41:40.200Z,86.40
2023-04-03T01:44:06.757Z,86.20
2023-04-03T01:46:33.318Z,85.70
2023-04-03T01:48:59.958Z,86.00
2023-04-03T01:51:26.555Z,86.00
2023-04-03T01:53:53.127Z,86.10
2023-04-03T01:56:19.672Z,85.80
2023-04-03T01:58:46.274Z,85.60
2023-04-03T02:01:12.903Z,85.90
2023-04-03T02:03:39.532Z,85.20
2023-04-03T02:06:06.149Z,84.20
2023-04-03T02:08:32.724Z,84.30
2023-04-03T02:10:59.330Z,83.60
2023-04-03T02:13:25.874Z,83.80
2023-04-03T02:15:52.417Z,83.80
2023-04-03T02:18:19.011Z,83.60
2023-04-03T02:20:45.551Z,83.90
2023-04-03T02:23:12.182Z,83.40
2023-04-03T02:25:39.113Z,82.30
2023-04-03T02:28:05.845Z,82.60
2023-04-03T02:30:32.870Z,81.70
2023-04-03T02:32:59.546Z,82.20
2023-04-03T02:35:26.210Z,82.00
2023-04-03T02:37:52.803Z,81.60
2023-04-03T02:40:19.383Z,82.30
2023-04-03T02:42:46.015Z,81.30
2023-04-03T02:45:12.599Z,80.60
2023-04-03T02:47:39.257Z,81.20
2023-04-03T02:50:05.860Z,80.50
2023-04-03T02:52:32.451Z,80.30
2023-04-03T02:54:58.999Z,81.30
2023-04-03T02:57:25.689Z,80.40
2023-04-03T02:59:52.333Z,80.20
2023-04-03T03:02:18.901Z,80.40
2023-04-03T03:04:45.459Z,80.90
2023-04-03T03:07:12.055Z,81.00
2023-04-03T03:09:38.625Z,80.20
2023-04-03T03:12:05.245Z,80.20
2023-04-03T03:14:31.883Z,80.20
2023-04-03T03:16:58.418Z,80.50
2023-04-03T03:19:24.946Z,80.40
2023-04-03T03:21:51.525Z,79.50
2023-04-03T03:24:18.101Z,80.10
2023-04-03T03:26:44.673Z,80.60
2023-04-03T03:29:11.318Z,81.10
2023-04-03T03:31:37.927Z,81.00
2023-04-03T03:34:04.543Z,80.50
2023-04-03T03:36:31.142Z,81.10
2023-04-03T03:38:57.721Z,81.10
2023-04-03T03:41:24.285Z,80.30
2023-04-03T03:43:50.855Z,80.90
2023-04-03T03:46:17.411Z,80.10
2023-04-03T03:48:43.985Z,80.00
2023-04-03T03:51:10.549Z,80.40
2023-04-03T03:53:37.129Z,80.90
2023-04-03T03:56:03.952Z,81.10
2023-04-03T03:58:30.547Z,81.70
2023-04-03T04:00:57.130Z,80.70
2023-04-03T04:03:23.761Z,80.90
2023-04-03T04:05:50.402Z,79.80
2023-04-03T04:08:17.042Z,79.20
2023-04-03T04:10:43.602Z,79.30
2023-04-03T04:13:10.184Z,80.40
2023-04-03T04:15:36.981Z,80.60
2023-04-03T04:18:03.779Z,79.40
2023-04-03T04:20:30.331Z,79.60
2023-04-03T04:22:56.886Z,79.80
2023-04-03T04:25:23.442Z,80.10
2023-04-03T04:27:50.130Z,80.90
2023-04-03T04:30:16.689Z,81.00
2023-04-03T04:32:43.276Z,81.30
2023-04-03T04:35:09.880Z,82.40
2023-04-03T04:37:36.457Z,81.40
2023-04-03T04:40:03.019Z,81.50
2023-04-03T04:42:29.595Z,81.80
2023-04-03T04:44:56.144Z,82.40
2023-04-03T04:47:22.716Z,81.80
2023-04-03T04:49:49.305Z,82.50
2023-04-03T04:52:15.888Z,82.20
2023-04-03T04:54:42.451Z,82.20
2023-04-03T04:57:09.066Z,82.70
2023-04-03T04:59:35.729Z,82.20
2023-04-03T05:02:02.348Z,82.60
2023-04-03T05:04:29.008Z,82.20
2023-04-03T05:06:55.638Z,82.10
2023-04-03T05:09:22.184Z,82.50
2023-04-03T05:11:48.753Z,81.60
2023-04-03T05:14:15.388Z,82.70
2023-04-03T05:16:41.966Z,82.50
2023-04-03T05:19:08.570Z,82.90
2023-04-03T05:21:35.105Z,82.90
2023-04-03T05:24:01.655Z,82.60
2023-04-03T05:26:28.235Z,82.70
2023-04-03T05:28:54.838Z,81.50
2023-04-03T05:31:21.466Z,82.50
2023-04-03T05:33:48.037Z,82.20
2023-04-03T05:36:14.712Z,82.30
2023-04-03T05:38:41.386Z,82.50
2023-04-03T05:41:07.966Z,82.40
2023-04-03T05:43:34.567Z,82.60
2023-04-03T05:46:01.281Z,82.20
2023-04-03T05:48:27.910Z,81.90
2023-04-03T05:50:56.947Z,81.30
2023-04-03T05:53:23.750Z,81.10
2023-04-03T05:55:50.340Z,81.20
2023-04-03T05:58:16.911Z,81.50
2023-04-03T06:00:43.478Z,80.60
2023-04-03T06:03:10.170Z,81.50
2023-04-03T06:05:37.064Z,81.10
2023-04-03T06:08:03.897Z,81.60
2023-04-03T06:10:30.448Z,80.80
2023-04-03T06:12:57.073Z,80.20
2023-04-03T06:15:23.693Z,80.00
2023-04-03T06:17:50.363Z,80.20
2023-04-03T06:20:19.265Z,80.70
2023-04-03T06:22:45.838Z,81.10
2023-04-03T06:25:12.397Z,81.30
2023-04-03T06:27:39.292Z,80.20
2023-04-03T06:30:05.935Z,79.30
2023-04-03T06:32:32.573Z,80.60
2023-04-03T06:34:59.339Z,80.70
2023-04-03T06:37:25.905Z,80.80
2023-04-03T06:39:52.507Z,81.40
2023-04-03T06:42:19.045Z,80.00
2023-04-03T06:44:45.644Z,80.80
2023-04-03T06:47:12.186Z,81.30
2023-04-03T06:49:38.788Z,80.90
2023-04-03T06:52:05.410Z,81.40
2023-04-03T06:54:31.956Z,81.90
2023-04-03T06:56:58.578Z,82.30
2023-04-03T06:59:25.161Z,81.10
2023-04-03T07:01:51.913Z,81.40
2023-04-03T07:04:18.579Z,80.90
2023-04-03T07:06:47.629Z,81.10
2023-04-03T07:09:14.346Z,80.30
2023-04-03T07:11:41.019Z,80.50
2023-04-03T07:14:07.576Z,80.70
2023-04-03T07:16:34.220Z,80.90
2023-04-03T07:19:00.838Z,80.80
2023-04-03T07:21:27.445Z,80.00
2023-04-03T07:23:54.058Z,79.20
2023-04-03T07:26:20.603Z,79.80
2023-04-03T07:28:47.325Z,80.20
2023-04-03T07:31:13.946Z,80.20
2023-04-03T07:33:40.540Z,78.40
2023-04-03T07:36:07.173Z,80.00
2023-04-03T07:38:33.824Z,79.50
2023-04-03T07:41:00.534Z,79.50
2023-04-03T07:43:27.088Z,79.60
2023-04-03T07:45:53.703Z,78.20
2023-04-03T07:48:20.269Z,76.20
2023-04-03T07:50:46.820Z,76.60
2023-04-03T07:53:13.402Z,76.20
2023-04-03T07:55:40.138Z,77.30
2023-04-03T07:58:07.088Z,78.00
2023-04-03T08:00:33.673Z,79.30
2023-04-03T08:03:00.332Z,77.90
2023-04-03T08:05:27.004Z,79.00
2023-04-03T08:07:53.604Z,73.60
2023-04-03T08:10:20.151Z,73.60
2023-04-03T08:12:46.749Z,74.50
2023-04-03T08:15:13.336Z,74.40
2023-04-03T08:17:40.035Z,75.60
2023-04-03T08:20:06.617Z,74.80
2023-04-03T08:22:33.204Z,75.20
2023-04-03T08:24:59.905Z,73.10
2023-04-03T08:27:29.581Z,72.70
2023-04-03T08:29:56.173Z,74.80
2023-04-03T08:32:22.731Z,75.10
2023-04-03T08:34:49.340Z,75.20
2023-04-03T08:37:16.134Z,73.70
2023-04-03T08:39:42.765Z,75.30
2023-04-03T08:42:09.318Z,75.30
2023-04-03T08:44:35.929Z,71.00
2023-04-03T08:47:02.513Z,72.10
2023-04-03T08:49:29.240Z,71.10
2023-04-03T08:51:55.814Z,70.20
2023-04-03T08:54:22.398Z,68.20
2023-04-03T08:56:48.982Z,68.70
2023-04-03T08:59:15.555Z,65.20
2023-04-03T09:01:42.278Z,64.50
2023-04-03T09:04:08.952Z,67.50
2023-04-03T09:06:35.617Z,65.00
2023-04-03T09:09:02.179Z,65.20
2023-04-03T09:11:28.727Z,66.20
2023-04-03T09:13:55.291Z,65.00
2023-04-03T09:16:21.902Z,64.00
2023-04-03T09:18:48.514Z,65.00
2023-04-03T09:21:16.110Z,65.20
2023-04-03T09:23:42.686Z,64.30
2023-04-03T09:26:09.266Z,65.50
2023-04-03T09:28:42.871Z,64.70
2023-04-03T09:31:13.732Z,66.00
2023-04-03T09:33:40.321Z,66.10
2023-04-03T09:36:06.898Z,64.40
2023-04-03T09:38:33.486Z,64.30
2023-04-03T09:41:00.027Z,64.10
2023-04-03T09:43:26.631Z,64.10
2023-04-03T09:45:53.193Z,65.80
2023-04-03T09:48:19.835Z,64.30
2023-04-03T09:50:46.534Z,63.30
2023-04-03T09:53:13.149Z,65.40
2023-04-03T09:55:39.701Z,62.40
2023-04-03T09:58:06.313Z,61.80
2023-04-03T10:00:32.865Z,63.40
2023-04-03T10:02:59.481Z,62.90
2023-04-03T10:05:26.286Z,62.50
2023-04-03T10:08:01.673Z,63.10
2023-04-03T10:10:30.378Z,62.40
2023-04-03T10:12:56.944Z,64.30
2023-04-03T10:15:23.623Z,64.60
2023-04-03T10:17:50.227Z,66.70
2023-04-03T10:20:16.897Z,65.50
2023-04-03T10:22:43.788Z,66.60
2023-04-03T10:25:10.423Z,66.30
2023-04-03T10:27:36.975Z,67.50
2023-04-03T10:30:03.730Z,66.10
2023-04-03T10:32:30.339Z,66.60
2023-04-03T10:35:04.647Z,66.50
2023-04-03T10:37:31.854Z,65.00
2023-04-03T10:39:58.407Z,66.10
2023-04-03T10:42:25.004Z,64.60
2023-04-03T10:44:51.560Z,64.90
2023-04-03T10:47:18.185Z,65.30
2023-04-03T10:49:50.064Z,67.40
2023-04-03T10:52:23.963Z,66.00
2023-04-03T10:54:50.617Z,66.30
2023-04-03T10:57:17.275Z,65.00
2023-04-03T10:59:43.858Z,64.30
2023-04-03T11:02:10.450Z,66.20
2023-04-03T11:04:37.016Z,63.80
2023-04-03T11:07:03.916Z,61.00
2023-04-03T11:09:30.626Z,61.60
2023-04-03T11:11:57.218Z,61.50
2023-04-03T11:14:23.809Z,62.60
2023-04-03T11:16:54.332Z,61.40
2023-04-03T11:19:21.231Z,62.20
2023-04-03T11:21:47.892Z,62.70
2023-04-03T11:24:14.445Z,62.50
2023-04-03T11:26:41.000Z,60.10
2023-04-03T11:29:07.608Z,61.30
2023-04-03T11:31:34.216Z,63.40
2023-04-03T11:34:00.782Z,61.40
2023-04-03T11:36:30.096Z,60.50
2023-04-03T11:39:01.103Z,61.20
2023-04-03T11:41:27.944Z,61.90
2023-04-03T11:43:54.582Z,61.80
2023-04-03T11:46:21.208Z,63.90
2023-04-03T11:48:47.815Z,61.60
2023-04-03T11:51:14.539Z,61.80
2023-04-03T11:53:41.129Z,61.30
2023-04-03T11:56:07.740Z,64.80
2023-04-03T11:58:34.305Z,61.90
2023-04-03T12:01:00.839Z,61.00
2023-04-03T12:03:27.657Z,60.60
2023-04-03T12:05:54.324Z,59.60
2023-04-03T12:08:20.930Z,58.80
2023-04-03T12:10:47.516Z,57.70
2023-04-03T12:13:14.137Z,57.80
2023-04-03T12:15:40.776Z,58.80
2023-04-03T12:18:07.503Z,58.30
2023-04-03T12:20:34.195Z,59.00
2023-04-03T12:23:00.773Z,60.90
2023-04-03T12:25:27.362Z,58.70
2023-04-03T12:27:54.044Z,59.70
2023-04-03T12:30:20.661Z,60.60
2023-04-03T12:32:47.298Z,60.60
2023-04-03T12:35:13.892Z,59.40
2023-04-03T12:37:40.489Z,60.40
2023-04-03T12:40:07.094Z,60.40
2023-04-03T12:42:33.742Z,60.00
2023-04-03T12:45:00.491Z,61.50
2023-04-03T12:47:27.209Z,58.20
2023-04-03T12:49:53.777Z,58.00
2023-04-03T12:52:20.360Z,59.20
2023-04-03T12:54:46.937Z,57.50
2023-04-03T12:57:13.591Z,58.10
2023-04-03T12:59:40.235Z,58.70
2023-04-03T13:02:06.867Z,58.50
2023-04-03T13:04:33.428Z,60.10
2023-04-03T13:06:59.988Z,60.80
2023-04-03T13:09:26.550Z,59.80
2023-04-03T13:11:53.104Z,59.30
2023-04-03T13:14:19.667Z,59.10
2023-04-03T13:16:46.252Z,58.20
2023-04-03T13:19:12.810Z,57.50
2023-04-03T13:21:39.454Z,58.80
2023-04-03T13:24:14.960Z,57.50
2023-04-03T13:26:42.186Z,58.90
2023-04-03T13:29:11.042Z,58.70
2023-04-03T13:31:44.460Z,59.70
2023-04-03T13:34:11.051Z,59.40
2023-04-03T13:36:37.791Z,59.40
2023-04-03T13:39:04.381Z,59.00
2023-04-03T13:41:30.975Z,58.10
2023-04-03T13:44:03.356Z,60.00
2023-04-03T13:46:33.266Z,60.30
2023-04-03T13:48:59.866Z,58.90
2023-04-03T13:51:26.517Z,59.30
2023-04-03T13:53:53.946Z,59.50
2023-04-03T13:56:20.525Z,59.20
2023-04-03T13:58:47.095Z,58.50
2023-04-03T14:01:13.762Z,57.30
2023-04-03T14:03:40.332Z,56.70
2023-04-03T14:06:06.971Z,57.70
2023-04-03T14:08:42.182Z,57.80
2023-04-03T14:11:09.873Z,56.60
2023-04-03T14:13:36.438Z,57.90
2023-04-03T14:16:15.113Z,56.40
2023-04-03T14:18:42.378Z,57.20
2023-04-03T14:21:09.300Z,58.10
2023-04-03T14:23:35.847Z,57.70
2023-04-03T14:26:02.432Z,57.00
2023-04-03T14:28:29.003Z,56.10
2023-04-03T14:30:55.673Z,56.30
2023-04-03T14:33:22.297Z,56.80
2023-04-03T14:35:48.877Z,56.90
2023-04-03T14:38:15.462Z,57.00
2023-04-03T14:40:42.042Z,57.80
2023-04-03T14:43:08.609Z,57.50
2023-04-03T14:45:35.166Z,57.70
2023-04-03T14:48:01.824Z,56.90
2023-04-03T14:50:28.428Z,56.70
2023-04-03T14:52:55.022Z,56.70
2023-04-03T14:55:21.613Z,56.50
2023-04-03T14:57:48.201Z,56.20
2023-04-03T15:00:14.729Z,56.90
2023-04-03T15:02:41.526Z,56.50
2023-04-03T15:05:08.527Z,57.00
2023-04-03T15:07:35.091Z,57.90
2023-04-03T15:10:01.675Z,55.50
2023-04-03T15:12:28.223Z,55.40
2023-04-03T15:15:01.122Z,56.60
2023-04-03T15:17:29.518Z,56.50
2023-04-03T15:19:56.124Z,56.50
2023-04-03T15:22:22.888Z,55.90
2023-04-03T15:24:49.445Z,57.00
2023-04-03T15:27:16.025Z,56.40
2023-04-03T15:29:42.579Z,56.80
2023-04-03T15:32:09.256Z,56.60
2023-04-03T15:34:35.861Z,55.20
2023-04-03T15:37:02.409Z,56.20
2023-04-03T15:39:29.022Z,56.10
2023-04-03T15:41:55.615Z,56.90
2023-04-03T15:44:22.177Z,56.50
2023-04-03T15:46:48.776Z,56.50
2023-04-03T15:49:15.364Z,56.40
2023-04-03T15:51:42.005Z,57.10
2023-04-03T15:54:08.586Z,56.70
2023-04-03T15:56:35.104Z,56.60
2023-04-03T15:59:02.020Z,56.40
2023-04-03T16:01:28.644Z,56.80
2023-04-03T16:03:55.243Z,57.00
2023-04-03T16:06:21.821Z,56.50
2023-04-03T16:08:48.794Z,56.20
2023-04-03T16:11:15.407Z,56.10
2023-04-03T16:13:41.993Z,57.20
2023-04-03T16:16:08.605Z,57.80
2023-04-03T16:18:35.921Z,58.90
2023-04-03T16:21:02.605Z,58.10
2023-04-03T16:23:29.225Z,57.40
2023-04-03T16:25:55.825Z,57.90
2023-04-03T16:28:22.412Z,58.10
2023-04-03T16:30:48.996Z,58.80
2023-04-03T16:33:15.574Z,57.20
2023-04-03T16:35:42.184Z,58.70
2023-04-03T16:38:08.744Z,58.70
2023-04-03T16:40:35.329Z,59.60
2023-04-03T16:43:01.899Z,58.10
2023-04-03T16:45:28.448Z,58.90
2023-04-03T16:47:55.042Z,59.30
2023-04-03T16:50:21.732Z,58.30
2023-04-03T16:52:48.317Z,59.20
2023-04-03T16:55:14.897Z,59.20
2023-04-03T16:57:41.439Z,57.50
2023-04-03T17:00:08.033Z,57.20
2023-04-03T17:02:34.676Z,56.70
2023-04-03T17:05:01.565Z,57.30
2023-04-03T17:07:28.118Z,57.70
2023-04-03T17:09:54.821Z,57.70
2023-04-03T17:12:21.403Z,58.20
2023-04-03T17:14:47.997Z,56.60
2023-04-03T17:17:14.554Z,56.80
2023-04-03T17:19:41.101Z,56.90
2023-04-03T17:22:07.692Z,55.70
2023-04-03T17:24:34.267Z,56.50
2023-04-03T17:27:00.820Z,57.30
2023-04-03T17:29:27.374Z,56.90
2023-04-03T17:31:53.955Z,56.80
2023-04-03T17:34:20.550Z,57.00
2023-04-03T17:36:47.137Z,56.80
2023-04-03T17:39:13.725Z,57.20
2023-04-03T17:41:40.302Z,57.90
2023-04-03T17:44:06.874Z,57.90
2023-04-03T17:46:34.820Z,57.80
2023-04-03T17:49:02.028Z,58.00
2023-04-03T17:51:28.655Z,57.40
2023-04-03T17:53:55.219Z,57.30
2023-04-03T17:56:21.870Z,57.50
2023-04-03T17:58:48.442Z,57.90
2023-04-03T18:01:15.139Z,57.00
2023-04-03T18:03:41.792Z,56.60
2023-04-03T18:06:08.454Z,57.30
2023-04-03T18:08:35.084Z,57.00
2023-04-03T18:11:01.673Z,56.90
2023-04-03T18:13:28.388Z,56.40
2023-04-03T18:15:55.078Z,56.60
2023-04-03T18:18:21.715Z,57.10
2023-04-03T18:20:48.309Z,56.90
2023-04-03T18:23:14.881Z,56.70
2023-04-03T18:25:41.470Z,57.00
2023-04-03T18:28:08.067Z,57.70
2023-04-03T18:30:34.627Z,57.80
2023-04-03T18:33:01.243Z,56.20
2023-04-03T18:35:27.878Z,56.70
2023-04-03T18:37:54.427Z,56.50
2023-04-03T18:40:20.992Z,56.70
2023-04-03T18:42:47.584Z,56.60
2023-04-03T18:45:14.139Z,56.80
2023-04-03T18:47:40.829Z,57.10
2023-04-03T18:50:07.428Z,56.90
2023-04-03T18:52:34.049Z,56.80
2023-04-03T18:55:00.602Z,57.10
2023-04-03T18:57:27.224Z,56.80
2023-04-03T18:59:53.836Z,56.80
2023-04-03T19:02:20.391Z,57.10
2023-04-03T19:04:47.883Z,57.10
2023-04-03T19:07:14.670Z,57.10
2023-04-03T19:09:41.216Z,56.90
2023-04-03T19:12:07.823Z,56.60
2023-04-03T19:14:34.395Z,57.10
2023-04-03T19:17:00.963Z,56.90
2023-04-03T19:19:27.538Z,56.70
2023-04-03T19:21:54.091Z,57.70
2023-04-03T19:24:20.650Z,58.40
2023-04-03T19:26:47.381Z,57.10
2023-04-03T19:29:13.950Z,57.10
2023-04-03T19:31:40.569Z,56.60
2023-04-03T19:34:07.136Z,57.60
2023-04-03T19:36:33.844Z,57.60
2023-04-03T19:39:00.468Z,57.90
2023-04-03T19:41:27.017Z,58.60
2023-04-03T19:43:53.578Z,58.90
2023-04-03T19:46:20.166Z,57.90
2023-04-03T19:48:46.761Z,57.90
2023-04-03T19:51:13.358Z,57.90
2023-04-03T19:53:39.929Z,57.80
2023-04-03T19:56:06.467Z,57.20
2023-04-03T19:58:33.092Z,57.60
2023-04-03T20:00:59.737Z,57.20
2023-04-03T20:03:26.295Z,57.50
2023-04-03T20:05:52.986Z,56.70
2023-04-03T20:08:19.580Z,57.10
2023-04-03T20:10:46.172Z,57.30
2023-04-03T20:13:12.761Z,56.90
2023-04-03T20:15:39.326Z,57.00
2023-04-03T20:18:05.972Z,57.40
2023-04-03T20:20:32.571Z,57.90
2023-04-03T20:22:59.123Z,58.30
2023-04-03T20:27:56.044Z,59.10
2023-04-03T20:30:22.688Z,58.00
2023-04-03T20:32:49.386Z,58.80
2023-04-03T20:35:15.976Z,58.60
2023-04-03T20:37:42.523Z,59.00
2023-04-03T20:40:09.087Z,57.90
2023-04-03T20:42:35.645Z,58.20
2023-04-03T20:45:02.230Z,58.40
2023-04-03T20:47:28.849Z,59.10
2023-04-03T20:49:55.421Z,57.50
2023-04-03T20:52:21.979Z,57.10
2023-04-03T20:54:48.616Z,57.80
2023-04-03T20:57:15.209Z,56.00
2023-04-03T20:59:41.760Z,56.30
2023-04-03T21:02:08.329Z,56.00
2023-04-03T21:04:34.868Z,56.40
2023-04-03T21:07:01.427Z,56.30
2023-04-03T21:09:28.055Z,56.70
2023-04-03T21:11:54.587Z,57.30
2023-04-03T21:14:21.145Z,58.40
2023-04-03T21:16:49.093Z,57.10
2023-04-03T21:19:15.738Z,56.30
2023-04-03T21:21:42.412Z,58.10
2023-04-03T21:24:09.112Z,56.80
2023-04-03T21:26:35.694Z,57.20
2023-04-03T21:29:02.260Z,57.30
2023-04-03T21:31:28.904Z,56.80
2023-04-03T21:33:55.463Z,57.10
2023-04-03T21:36:22.042Z,57.00
2023-04-03T21:38:48.634Z,57.50
2023-04-03T21:41:15.186Z,57.60
2023-04-03T21:43:41.971Z,57.50
2023-04-03T21:46:08.569Z,57.80
2023-04-03T21:48:35.161Z,58.20
2023-04-03T21:51:01.741Z,58.50
2023-04-03T21:53:28.311Z,58.90
2023-04-03T21:55:54.905Z,57.80
2023-04-03T21:58:21.485Z,57.90
2023-04-03T22:00:48.127Z,58.40
2023-04-03T22:03:14.741Z,58.30
2023-04-03T22:05:41.317Z,58.30
2023-04-03T22:08:07.930Z,58.80
2023-04-03T22:10:34.471Z,58.50
2023-04-03T22:13:01.054Z,58.60
2023-04-03T22:15:27.597Z,58.90
2023-04-03T22:17:54.187Z,59.90
2023-04-03T22:20:20.762Z,59.70
2023-04-03T22:22:47.313Z,59.90
2023-04-03T22:25:13.883Z,59.70
2023-04-03T22:27:40.526Z,59.60
2023-04-03T22:30:07.100Z,59.70
2023-04-03T22:32:33.671Z,59.70
2023-04-03T22:35:00.579Z,59.40
2023-04-03T22:37:27.139Z,59.50
2023-04-03T22:39:53.711Z,59.90
2023-04-03T22:42:20.268Z,59.20
2023-04-03T22:44:46.850Z,59.20
2023-04-03T22:47:13.452Z,59.40
2023-04-03T22:49:40.034Z,59.40
2023-04-03T22:52:06.657Z,59.70
2023-04-03T22:54:33.219Z,59.00
2023-04-03T22:56:59.885Z,58.80
2023-04-03T22:59:26.562Z,58.10
2023-04-03T23:01:53.152Z,57.90
2023-04-03T23:04:19.704Z,58.20
2023-04-03T23:06:46.313Z,58.30
2023-04-03T23:09:12.881Z,57.50
2023-04-03T23:11:39.423Z,57.40
2023-04-03T23:14:06.018Z,57.40
2023-04-03T23:16:32.612Z,57.30
2023-04-03T23:18:59.217Z,57.50
2023-04-03T23:21:25.799Z,57.80
2023-04-03T23:23:52.405Z,58.20
2023-04-03T23:26:18.978Z,57.70
2023-04-03T23:28:45.589Z,57.90
2023-04-03T23:31:12.196Z,57.20
2023-04-03T23:33:39.096Z,57.80
2023-04-03T23:36:05.791Z,57.70
2023-04-03T23:38:32.386Z,57.10
2023-04-03T23:40:58.993Z,57.00
2023-04-03T23:43:25.560Z,57.80
2023-04-03T23:45:52.136Z,58.00
2023-04-03T23:48:18.697Z,57.70
2023-04-03T23:50:45.251Z,57.60
2023-04-03T23:53:11.799Z,58.10
2023-04-03T23:55:38.365Z,57.60
2023-04-03T23:58:06.996Z,57.80
